Terminal Aerodrome Forecast
Issued by NWS Pocatello, ID

Current Version | Previous Version | Text Only | Print | Product List | Glossary On
Versions: 1 2 3 4 5 6 7 8 9 10 11 12 13
000
FTUS45 KPIH 262300
TAFBYI
TAF
KBYI 262321Z 2700/2724 25007KT P6SM VCSH BKN060
     FM270300 15007KT P6SM SCT040 BKN100
     FM271400 11008KT P6SM VCSH SCT030 OVC050=

USA.gov is the U.S. government's official web portal to all federal, state and local government web resources and services.